createdAt,value
2023-05-14T08:58:14.656Z,31.00
2023-05-14T09:00:41.350Z,30.80
2023-05-14T09:03:09.792Z,30.20
2023-05-14T09:05:36.950Z,29.70
2023-05-14T09:08:03.733Z,29.60
2023-05-14T09:10:30.474Z,29.90
2023-05-14T09:12:57.120Z,30.00
2023-05-14T09:15:27.556Z,29.90
2023-05-14T09:17:54.292Z,29.60
2023-05-14T09:20:21.663Z,29.50
2023-05-14T09:22:52.359Z,29.40
2023-05-14T09:25:19.136Z,30.00
2023-05-14T09:27:50.370Z,30.70
2023-05-14T09:30:17.485Z,30.70
2023-05-14T09:32:47.168Z,30.90
2023-05-14T09:35:17.847Z,30.90
2023-05-14T09:37:56.118Z,30.70
2023-05-14T09:40:24.366Z,31.20
2023-05-14T09:42:51.633Z,31.70
2023-05-14T09:45:18.427Z,31.60
2023-05-14T09:47:45.508Z,31.80
2023-05-14T09:50:12.887Z,31.70
2023-05-14T09:52:39.841Z,31.50
2023-05-14T09:55:07.022Z,31.60
2023-05-14T09:57:34.638Z,31.60
2023-05-14T10:00:01.375Z,31.20
2023-05-14T10:02:37.742Z,30.60
2023-05-14T10:05:06.403Z,30.40
2023-05-14T10:07:49.074Z,30.50
2023-05-14T10:10:18.512Z,30.70
2023-05-14T10:12:53.523Z,30.60
2023-05-14T10:15:30.026Z,30.10
2023-05-14T10:18:05.624Z,29.70
2023-05-14T10:20:32.812Z,29.70
2023-05-14T10:22:59.934Z,29.60
2023-05-14T10:25:27.461Z,29.90
2023-05-14T10:27:54.541Z,30.00
2023-05-14T10:30:23.125Z,29.80
2023-05-14T10:33:05.095Z,29.30
2023-05-14T10:35:51.971Z,29.40
2023-05-14T10:38:23.132Z,29.20
2023-05-14T10:40:51.621Z,29.40
2023-05-14T10:43:20.661Z,29.30
2023-05-14T10:45:47.306Z,28.90
2023-05-14T10:48:14.680Z,28.70
2023-05-14T10:50:42.960Z,29.10
2023-05-14T10:53:13.655Z,29.30
2023-05-14T10:55:42.211Z,28.90
2023-05-14T10:58:10.811Z,28.20
2023-05-14T11:00:38.702Z,27.30
2023-05-14T11:03:06.840Z,26.40
2023-05-14T11:05:37.154Z,25.30
2023-05-14T11:08:08.002Z,24.40
2023-05-14T11:10:35.676Z,23.80
2023-05-14T11:13:02.613Z,23.60
2023-05-14T11:15:29.645Z,23.50
2023-05-14T11:17:56.446Z,23.40
2023-05-14T11:22:51.543Z,23.30
2023-05-14T11:25:18.823Z,23.30
2023-05-14T11:27:47.219Z,23.20
2023-05-14T11:30:20.593Z,23.20
2023-05-14T11:32:49.108Z,23.40
2023-05-14T11:35:16.642Z,23.40
2023-05-14T11:37:43.936Z,23.40
2023-05-14T11:40:16.630Z,23.30
2023-05-14T11:42:43.482Z,23.10
2023-05-14T11:45:14.090Z,23.10
2023-05-14T11:47:43.945Z,23.00
2023-05-14T11:50:11.141Z,23.10
2023-05-14T11:52:40.495Z,23.10
2023-05-14T11:55:12.112Z,23.00
2023-05-14T11:57:38.934Z,22.90
2023-05-14T12:00:09.136Z,22.90
2023-05-14T12:02:37.526Z,23.00
2023-05-14T12:05:07.143Z,23.10
2023-05-14T12:07:34.019Z,23.40
2023-05-14T12:10:03.246Z,23.40
2023-05-14T12:12:36.348Z,23.60
2023-05-14T12:15:10.375Z,23.60
2023-05-14T12:17:38.138Z,23.80
2023-05-14T12:20:07.981Z,23.80
2023-05-14T12:22:36.388Z,23.40
2023-05-14T12:25:04.029Z,23.20
2023-05-14T12:27:30.961Z,23.10
2023-05-14T12:32:35.995Z,23.10
2023-05-14T12:35:03.078Z,23.00
2023-05-14T12:37:31.258Z,22.90
2023-05-14T12:39:58.071Z,22.80
2023-05-14T12:42:24.772Z,22.70
2023-05-14T12:44:51.446Z,22.80
2023-05-14T12:47:18.420Z,22.80
2023-05-14T12:49:45.524Z,22.70
2023-05-14T12:54:43.431Z,22.60
2023-05-14T12:57:10.243Z,22.50
2023-05-14T12:59:36.895Z,22.60
2023-05-14T13:02:03.610Z,22.90
2023-05-14T13:04:30.336Z,23.10
2023-05-14T13:06:57.060Z,23.20
2023-05-14T13:09:23.969Z,23.20
2023-05-14T13:11:50.802Z,23.40
2023-05-14T13:14:18.387Z,23.50
2023-05-14T13:16:46.864Z,23.40
2023-05-14T13:19:13.771Z,23.40
2023-05-14T13:21:40.553Z,23.60
2023-05-14T13:24:07.504Z,23.50
2023-05-14T13:26:34.270Z,23.40
2023-05-14T13:29:00.944Z,23.40
2023-05-14T13:31:27.645Z,23.50
2023-05-14T13:33:54.323Z,23.40
2023-05-14T13:36:23.620Z,23.30
2023-05-14T13:38:50.310Z,23.30
2023-05-14T13:41:16.950Z,23.30
2023-05-14T13:43:43.676Z,23.20
2023-05-14T13:46:10.588Z,23.20
2023-05-14T13:48:37.332Z,23.10
2023-05-14T13:51:04.197Z,23.00
2023-05-14T13:53:31.012Z,22.90
2023-05-14T13:55:58.468Z,22.90
2023-05-14T13:58:27.178Z,22.90
2023-05-14T14:00:54.280Z,22.90
2023-05-14T14:03:21.306Z,22.90
2023-05-14T14:05:48.123Z,22.90
2023-05-14T14:08:23.368Z,23.00
2023-05-14T14:10:51.372Z,23.00
2023-05-14T14:13:21.167Z,23.10
2023-05-14T14:15:50.744Z,23.50
2023-05-14T14:18:17.389Z,23.60
2023-05-14T14:20:44.173Z,23.60
2023-05-14T14:23:11.031Z,23.70
2023-05-14T14:25:37.674Z,23.90
2023-05-14T14:28:04.358Z,24.00
2023-05-14T14:30:32.237Z,24.10
2023-05-14T14:33:01.080Z,24.20
2023-05-14T14:35:27.924Z,23.90
2023-05-14T14:37:56.053Z,23.40
2023-05-14T14:40:24.129Z,22.90
2023-05-14T14:42:50.804Z,22.60
2023-05-14T14:45:18.013Z,22.40
2023-05-14T14:47:46.394Z,22.30
2023-05-14T14:50:15.485Z,22.10
2023-05-14T14:52:47.940Z,22.20
2023-05-14T14:55:14.601Z,22.20
2023-05-14T14:57:41.257Z,22.10
2023-05-14T15:00:09.185Z,22.10
2023-05-14T15:02:38.253Z,22.10
2023-05-14T15:05:05.991Z,22.00
2023-05-14T15:07:34.121Z,22.10
2023-05-14T15:10:00.777Z,22.10
2023-05-14T15:12:27.398Z,22.10
2023-05-14T15:14:55.781Z,22.20
2023-05-14T15:17:23.624Z,22.30
2023-05-14T15:19:50.326Z,22.30
2023-05-14T15:22:17.065Z,22.40
2023-05-14T15:24:43.829Z,22.50
2023-05-14T15:27:10.528Z,22.60
2023-05-14T15:29:37.367Z,22.70
2023-05-14T15:32:04.570Z,22.80
2023-05-14T15:34:31.736Z,22.90
2023-05-14T15:36:58.587Z,22.90
2023-05-14T15:39:25.246Z,22.90
2023-05-14T15:41:52.079Z,22.90
2023-05-14T15:44:19.103Z,22.80
2023-05-14T15:46:46.167Z,22.80
2023-05-14T15:49:12.824Z,22.70
2023-05-14T15:51:39.756Z,22.60
2023-05-14T15:54:06.393Z,22.60
2023-05-14T15:56:33.572Z,22.50
2023-05-14T15:59:00.229Z,22.60
2023-05-14T16:01:27.057Z,22.60
2023-05-14T16:03:53.973Z,22.70
2023-05-14T16:06:20.746Z,22.70
2023-05-14T16:08:47.440Z,22.70
2023-05-14T16:11:15.386Z,22.70
2023-05-14T16:13:42.236Z,22.50
2023-05-14T16:16:08.960Z,22.30
2023-05-14T16:18:35.703Z,22.30
2023-05-14T16:21:02.613Z,22.10
2023-05-14T16:23:29.414Z,22.00
2023-05-14T16:25:56.042Z,21.80
2023-05-14T16:28:22.946Z,21.70
2023-05-14T16:30:50.006Z,21.70
2023-05-14T16:33:16.727Z,21.60
2023-05-14T16:35:43.611Z,21.60
2023-05-14T16:38:10.288Z,21.60
2023-05-14T16:40:36.942Z,21.60
2023-05-14T16:43:03.662Z,21.70
2023-05-14T16:45:32.530Z,21.60
2023-05-14T16:48:00.888Z,21.50
